New Horizon — WKWB — position and weather

sailwx.info

Track history (hours):
 
Tides and Currents Weather Stations Pressure Air Temp Water Temp Dewpoint Dewpoint Depression Visibility Wind Speed Wind Dir Waves Ship Positions

Oceanographic research ship New Horizon (USA)

Detailed information on ship capabilities available from University of Delaware's Ocean Information Center.

Owner: Bold Horizon, LLC., Annapolis, MD. More information available from US FCC via Universal Licensing System and Coast Guard Vessel Documentation Center.

Last reported at 2018-Sep-21 02:30 UTC. Time now 2018-Sep-21 02:37 UTC.
Position N 32°58' W 118°09'.

Type: Other ship. MMSI: 303273000.

Date/timePositionNaut miles runAvg speedWind from/ knotsBaromVisibWave heightAir tempDewpointWater temp
2018-Sep-21 02:30N 32°58' W 118°09'3 7.6
2018-Sep-21 02:04N 32°57' W 118°05'0 7.2
2018-Sep-21 02:00N 32°56' W 118°05'3 6.6
2018-Sep-21 01:31N 32°55' W 118°01'3 6.7
2018-Sep-21 01:04N 32°54' W 117°58'0 4.4
2018-Sep-21 01:01N 32°54' W 117°57'4 7.4
2018-Sep-21 00:31N 32°53' W 117°53'4 7.8
2018-Sep-21 00:04N 32°52' W 117°49'0 7.4
2018-Sep-21 00:00N 32°52' W 117°49'4 7.9
2018-Sep-20 23:31N 32°50' W 117°45'3 7.8
2018-Sep-20 23:03N 32°48' W 117°41'0 7.7
2018-Sep-20 23:01N 32°48' W 117°41'4 7.4
2018-Sep-20 22:31N 32°46' W 117°37'3 7.2
2018-Sep-20 22:04N 32°44' W 117°34'0 6.7
2018-Sep-20 22:00N 32°44' W 117°34'3 6.9
2018-Sep-20 21:31N 32°43' W 117°30'3 7.6
2018-Sep-20 21:03N 32°41' W 117°26'0 7.3
2018-Sep-20 21:00N 32°41' W 117°26'4 8.0
2018-Sep-20 20:30N 32°39' W 117°21'4 8.1
2018-Sep-20 20:03N 32°38' W 117°17'0 8.4
2018-Sep-20 20:00N 32°38' W 117°17'3 6.3
2018-Sep-20 19:31N 32°39' W 117°14'2 5.1
2018-Sep-20 19:02N 32°42' W 117°14'0 0.0
2018-Sep-20 18:58N 32°42' W 117°14'0 0.0
2018-Sep-20 18:27N 32°42' W 117°14'0 0.0
2018-Sep-20 18:04N 32°42' W 117°14'0 0.0
2018-Sep-20 17:59N 32°42' W 117°14'0 0.0
2018-Sep-20 17:31N 32°42' W 117°14'0 0.0
2018-Sep-20 17:02N 32°42' W 117°14'0 0.2
2018-Sep-20 17:00N 32°42' W 117°14'0 0.0
2018-Sep-20 16:30N 32°42' W 117°14'0 0.0
2018-Sep-20 16:04N 32°42' W 117°14'0 0.0
2018-Sep-20 16:01N 32°42' W 117°14'0 0.9
2018-Sep-20 15:30N 32°42' W 117°14'3 6.8
2018-Sep-20 15:00N 32°42' W 117°10'0 0.0
2018-Sep-18 19:39N 32°42' W 117°09'0 0.0
2018-Sep-18 19:21N 32°42' W 117°09'0 0.0
2018-Sep-18 18:57N 32°42' W 117°09'0 0.0
2018-Sep-18 18:12N 32°42' W 117°09'0 0.0
2018-Sep-18 17:54N 32°42' W 117°09'0 0.0
2018-Sep-18 17:27N 32°42' W 117°09'0 0.0
2018-Sep-18 17:00N 32°42' W 117°09'0 0.0
2018-Sep-18 16:30N 32°42' W 117°09'0 0.0
2018-Sep-18 15:33N 32°42' W 117°09'0 0.0
2018-Sep-18 15:27N 32°42' W 117°09'0 0.0
2018-Sep-18 05:45N 32°42' W 117°09'0 0.0
2018-Sep-18 05:15N 32°42' W 117°09'0 0.0
2018-Sep-18 04:54N 32°42' W 117°09'0 0.0
2018-Sep-17 03:08N 32°42' W 117°09'0 0.0
2018-Sep-17 03:02N 32°42' W 117°09'0 0.0
2018-Sep-17 02:08N 32°42' W 117°09'0 0.0
2018-Sep-16 17:41N 32°42' W 117°09'1 5.1
2018-Sep-16 17:30N 32°42' W 117°10'3 6.1
2018-Sep-16 17:03N 32°42' W 117°13'0 6.9
2018-Sep-16 17:00N 32°42' W 117°14'3 6.1
2018-Sep-16 16:30N 32°39' W 117°14'2 3.4
2018-Sep-16 16:03N 32°38' W 117°14'0 3.4
2018-Sep-16 16:00N 32°38' W 117°14'2 3.0
2018-Sep-16 15:30N 32°36' W 117°15'1 3.2
2018-Sep-16 15:03N 32°36' W 117°16'0 3.1
2018-Sep-16 15:00N 32°36' W 117°17'1 3.0
2018-Sep-16 14:30N 32°35' W 117°18'2 2.5
2018-Sep-16 13:30N 32°35' W 117°21'1 1.2
2018-Sep-16 13:03N 32°35' W 117°21'0 3.3
2018-Sep-16 13:00N 32°35' W 117°21'2 4.2
2018-Sep-16 12:30N 32°37' W 117°21'1 1.4
2018-Sep-16 12:03N 32°38' W 117°21'0 0.8
2018-Sep-16 12:00N 32°38' W 117°21'0 0.2
2018-Sep-16 11:30N 32°38' W 117°21'0 0.6
2018-Sep-16 11:03N 32°38' W 117°21'0 1.0
2018-Sep-16 11:00N 32°38' W 117°21'1 2.0
2018-Sep-16 10:30N 32°37' W 117°22'0 0.6
2018-Sep-16 10:04N 32°37' W 117°22'0 0.2
2018-Sep-16 10:00N 32°37' W 117°22'0 0.3
2018-Sep-16 09:30N 32°37' W 117°22'0 0.5
2018-Sep-16 09:03N 32°37' W 117°22'0 3.1
2018-Sep-16 09:00N 32°37' W 117°22'1 1.1
2018-Sep-16 08:30N 32°36' W 117°22'0 0.3
2018-Sep-16 08:03N 32°36' W 117°22'0 1.6
2018-Sep-16 08:00N 32°36' W 117°22'0 0.4
2018-Sep-16 07:30N 32°36' W 117°22'1 2.0
2018-Sep-16 07:03N 32°36' W 117°21'0 1.2
2018-Sep-16 07:00N 32°36' W 117°21'0 0.3
2018-Sep-16 06:30N 32°36' W 117°21'0 0.1
2018-Sep-16 06:03N 32°36' W 117°21'0 0.2
2018-Sep-16 06:00N 32°36' W 117°21'1 1.7
2018-Sep-16 05:30N 32°36' W 117°20'0 0.1
2018-Sep-16 05:03N 32°36' W 117°20'0 1.0
2018-Sep-16 05:00N 32°36' W 117°20'0 0.7
2018-Sep-16 04:31N 32°35' W 117°20'0 0.7
2018-Sep-16 04:03N 32°36' W 117°20'0 0.0
2018-Sep-16 04:00N 32°36' W 117°20'0 0.7
2018-Sep-16 03:30N 32°36' W 117°20'2 3.9
2018-Sep-16 03:03N 32°37' W 117°22'0 1.5
2018-Sep-16 03:01N 32°37' W 117°22'0 0.5
2018-Sep-16 02:30N 32°37' W 117°22'0 0.5
2018-Sep-16 02:03N 32°37' W 117°22'0 2.8
2018-Sep-16 02:00N 32°37' W 117°22'1 2.1
2018-Sep-16 01:30N 32°38' W 117°23'0 0.2
2018-Sep-16 01:04N 32°38' W 117°23'0 0.6
2018-Sep-16 01:01N 32°38' W 117°23'1 2.6
2018-Sep-16 00:30N 32°37' W 117°22'0 0.1
2018-Sep-16 00:03N 32°37' W 117°22'0 0.0
2018-Sep-16 00:00N 32°37' W 117°22'0 0.0
2018-Sep-15 23:30N 32°37' W 117°22'1 1.2
2018-Sep-15 23:03N 32°37' W 117°21'0 0.1
2018-Sep-15 23:00N 32°37' W 117°21'1 1.8
2018-Sep-15 22:30N 32°37' W 117°20'0 1.0
2018-Sep-15 22:04N 32°37' W 117°20'0 1.0
2018-Sep-15 22:00N 32°37' W 117°20'0 0.1
2018-Sep-15 21:31N 32°37' W 117°20'1 1.9
2018-Sep-15 21:03N 32°36' W 117°19'0 0.1
2018-Sep-15 21:01N 32°36' W 117°19'2 3.0
2018-Sep-15 20:30N 32°36' W 117°17'0 0.2
2018-Sep-15 20:04N 32°36' W 117°17'0 0.1
2018-Sep-15 20:01N 32°36' W 117°17'1 1.7
2018-Sep-15 19:30N 32°35' W 117°18'0 0.0
2018-Sep-15 19:03N 32°35' W 117°18'0 0.1
2018-Sep-15 19:00N 32°35' W 117°18'0 0.6
2018-Sep-15 18:30N 32°35' W 117°18'0 0.0
2018-Sep-15 18:04N 32°35' W 117°18'0 1.0
2018-Sep-15 18:00N 32°35' W 117°18'0 0.3
2018-Sep-15 17:30N 32°35' W 117°18'0 0.2
2018-Sep-15 17:03N 32°35' W 117°18'0 0.7
2018-Sep-15 17:00N 32°35' W 117°18'1 2.0
2018-Sep-15 16:30N 32°35' W 117°19'1 1.5
2018-Sep-15 16:03N 32°35' W 117°19'0 6.1
2018-Sep-15 16:00N 32°35' W 117°20'0 0.2
2018-Sep-15 15:30N 32°35' W 117°19'1 2.7
2018-Sep-15 15:00N 32°36' W 117°20'1 1.1
2018-Sep-15 14:03N 32°37' W 117°21'0 0.0
2018-Sep-15 14:00N 32°37' W 117°21'0 0.4
2018-Sep-15 13:30N 32°37' W 117°21'0 0.2
2018-Sep-15 13:04N 32°37' W 117°21'0 1.0
2018-Sep-15 13:00N 32°37' W 117°21'0 0.0
2018-Sep-15 12:31N 32°37' W 117°21'1 2.4
2018-Sep-15 12:03N 32°38' W 117°21'0 0.1
2018-Sep-15 12:00N 32°38' W 117°21'1 2.6
2018-Sep-15 11:30N 32°39' W 117°22'0 0.1
2018-Sep-15 11:03N 32°39' W 117°22'0 1.0
2018-Sep-15 11:00N 32°39' W 117°22'2 3.6
2018-Sep-15 10:30N 32°39' W 117°20'0 0.9
2018-Sep-15 10:03N 32°39' W 117°20'0 3.6
2018-Sep-15 10:00N 32°39' W 117°20'0 1.0
2018-Sep-15 09:30N 32°40' W 117°20'0 0.0
2018-Sep-15 09:03N 32°40' W 117°20'0 0.0
2018-Sep-15 09:00N 32°40' W 117°20'0 0.0
2018-Sep-15 08:30N 32°40' W 117°20'1 1.2
2018-Sep-15 08:03N 32°39' W 117°20'0 0.1
2018-Sep-15 08:00N 32°39' W 117°20'1 1.4
2018-Sep-15 07:30N 32°39' W 117°20'0 0.9
2018-Sep-15 07:04N 32°38' W 117°20'0 0.1
2018-Sep-15 07:01N 32°38' W 117°20'1 1.6
2018-Sep-15 06:30N 32°37' W 117°20'1 1.4
2018-Sep-15 06:03N 32°37' W 117°21'0 3.6
2018-Sep-15 06:00N 32°37' W 117°21'0 0.5
2018-Sep-15 05:30N 32°36' W 117°21'1 1.3
2018-Sep-15 05:03N 32°36' W 117°21'0 1.0
2018-Sep-15 05:00N 32°36' W 117°21'0 0.1
2018-Sep-15 04:30N 32°36' W 117°21'1 1.8
2018-Sep-15 04:04N 32°37' W 117°21'0 7.1
2018-Sep-15 04:00N 32°36' W 117°21'1 3.0
2018-Sep-15 03:30N 32°35' W 117°21'0 0.0
2018-Sep-15 03:03N 32°35' W 117°21'0 0.0
2018-Sep-15 03:00N 32°35' W 117°21'0 0.0
2018-Sep-15 02:30N 32°35' W 117°21'1 1.2
2018-Sep-15 02:03N 32°34' W 117°22'0 1.2
2018-Sep-15 02:00N 32°34' W 117°22'0 0.1
2018-Sep-15 01:30N 32°35' W 117°22'0 0.0
2018-Sep-15 01:03N 32°35' W 117°22'0 0.1
2018-Sep-15 01:00N 32°35' W 117°22'2 3.6
2018-Sep-15 00:30N 32°36' W 117°22'0 0.0
2018-Sep-15 00:03N 32°36' W 117°22'0 0.3
2018-Sep-15 00:00N 32°36' W 117°22'0 0.0
2018-Sep-14 23:30N 32°36' W 117°22'0 0.1
2018-Sep-14 23:04N 32°36' W 117°22'0 1.0
2018-Sep-14 23:00N 32°36' W 117°22'1 1.6
2018-Sep-14 22:30N 32°37' W 117°21'0 0.0
2018-Sep-14 22:03N 32°37' W 117°21'0 0.0
2018-Sep-14 22:00N 32°37' W 117°21'0 0.0
2018-Sep-14 21:31N 32°37' W 117°21'0 0.9
2018-Sep-14 21:03N 32°37' W 117°21'0 0.0
2018-Sep-14 21:01N 32°37' W 117°21'0 0.1
2018-Sep-14 20:30N 32°37' W 117°21'1 2.0
2018-Sep-14 20:03N 32°37' W 117°20'0 0.1
2018-Sep-14 20:00N 32°37' W 117°20'0 0.9
2018-Sep-14 19:30N 32°37' W 117°19'0 0.9
2018-Sep-14 19:03N 32°38' W 117°19'0 1.0
2018-Sep-14 19:00N 32°38' W 117°19'0 0.4
2018-Sep-14 18:30N 32°38' W 117°19'1 2.0
2018-Sep-14 18:03N 32°38' W 117°18'0 0.1
2018-Sep-14 18:00N 32°38' W 117°18'0 0.0
2018-Sep-14 17:30N 32°38' W 117°18'2 5.4
2018-Sep-14 17:03N 32°38' W 117°15'0 8.6
2018-Sep-14 17:00N 32°38' W 117°14'4 8.1
2018-Sep-14 16:30N 32°42' W 117°14'3 6.6
2018-Sep-14 16:03N 32°42' W 117°10'1 8.6
2018-Sep-14 15:59N 32°42' W 117°10'1 0.0
2018-Sep-14 01:31N 32°42' W 117°09'3 7.4
2018-Sep-14 01:03N 32°43' W 117°13'0 8.0
2018-Sep-14 01:00N 32°42' W 117°14'4 7.9
2018-Sep-14 00:31N 32°38' W 117°14'3 7.7
2018-Sep-14 00:04N 32°36' W 117°17'0 7.4
2018-Sep-14 00:01N 32°36' W 117°17'1 2.9
2018-Sep-13 23:31N 32°36' W 117°19'0 1.1
2018-Sep-13 23:04N 32°35' W 117°19'0 0.0
2018-Sep-13 23:00N 32°35' W 117°19'1 1.1
2018-Sep-13 22:30N 32°35' W 117°19'1 2.1
2018-Sep-13 22:03N 32°35' W 117°20'0 7.1
2018-Sep-13 22:00N 32°35' W 117°20'1 1.5
2018-Sep-13 21:31N 32°35' W 117°21'1 1.2
2018-Sep-13 21:03N 32°35' W 117°22'0 2.4
2018-Sep-13 21:00N 32°35' W 117°22'0 0.3
2018-Sep-13 20:30N 32°35' W 117°22'1 1.7
2018-Sep-13 20:03N 32°34' W 117°21'0 0.6
2018-Sep-13 20:00N 32°34' W 117°21'0 0.4
2018-Sep-13 19:31N 32°35' W 117°22'0 0.7
2018-Sep-13 19:04N 32°35' W 117°21'0 0.2
2018-Sep-13 19:01N 32°35' W 117°21'0 0.5
2018-Sep-13 18:30N 32°35' W 117°21'0 0.6
2018-Sep-13 18:03N 32°35' W 117°21'0 0.0
2018-Sep-13 18:00N 32°35' W 117°21'0 0.6
2018-Sep-13 17:30N 32°36' W 117°21'0 0.6
2018-Sep-13 17:04N 32°36' W 117°21'0 0.2
2018-Sep-13 17:00N 32°36' W 117°21'0 0.7
2018-Sep-13 16:30N 32°36' W 117°21'0 0.4
2018-Sep-13 16:04N 32°36' W 117°21'0 1.3
2018-Sep-13 16:01N 32°36' W 117°21'0 0.8
2018-Sep-13 15:30N 32°37' W 117°21'0 0.9
2018-Sep-13 15:03N 32°37' W 117°21'0 0.0
2018-Sep-13 15:00N 32°37' W 117°21'0 0.3
2018-Sep-13 14:31N 32°37' W 117°21'0 0.3
2018-Sep-13 14:01N 32°37' W 117°21'0 0.6
2018-Sep-13 13:31N 32°37' W 117°20'0 0.4
2018-Sep-13 13:03N 32°38' W 117°20'0 1.4
2018-Sep-13 13:00N 32°38' W 117°20'0 0.5
2018-Sep-13 12:30N 32°38' W 117°20'0 0.6
2018-Sep-13 12:03N 32°38' W 117°20'0 0.1
2018-Sep-13 12:00N 32°38' W 117°20'0 0.6
2018-Sep-13 11:31N 32°38' W 117°20'0 0.9
2018-Sep-13 11:04N 32°39' W 117°20'0 2.0
2018-Sep-13 11:01N 32°39' W 117°20'0 0.7
2018-Sep-13 10:30N 32°39' W 117°20'0 0.6
2018-Sep-13 10:04N 32°39' W 117°20'0 1.6
2018-Sep-13 10:00N 32°39' W 117°20'0 0.3
2018-Sep-13 09:30N 32°40' W 117°20'1 2.0
2018-Sep-13 09:04N 32°39' W 117°21'0 6.2
2018-Sep-13 09:01N 32°39' W 117°21'1 1.8
2018-Sep-13 08:30N 32°39' W 117°22'0 0.6
2018-Sep-13 08:03N 32°39' W 117°22'0 0.1
2018-Sep-13 08:00N 32°39' W 117°22'0 0.7
2018-Sep-13 07:30N 32°39' W 117°22'0 1.0
2018-Sep-13 07:04N 32°38' W 117°21'0 0.0
2018-Sep-13 07:00N 32°38' W 117°21'0 0.5
2018-Sep-13 06:30N 32°38' W 117°21'0 0.7
2018-Sep-13 06:04N 32°38' W 117°21'0 1.9
2018-Sep-13 06:01N 32°38' W 117°21'0 0.8
2018-Sep-13 05:30N 32°37' W 117°21'0 0.6
2018-Sep-13 05:03N 32°37' W 117°21'0 0.0
2018-Sep-13 05:01N 32°37' W 117°21'0 0.6
2018-Sep-13 04:30N 32°37' W 117°21'0 0.5
2018-Sep-13 04:04N 32°36' W 117°20'0 0.5
2018-Sep-13 04:01N 32°36' W 117°20'0 0.5
2018-Sep-13 03:31N 32°36' W 117°20'0 0.6
2018-Sep-13 03:04N 32°36' W 117°20'0 0.0
2018-Sep-13 03:01N 32°36' W 117°20'0 0.8
2018-Sep-13 02:30N 32°36' W 117°20'0 0.4
2018-Sep-13 02:03N 32°35' W 117°20'0 1.3
2018-Sep-13 02:01N 32°35' W 117°20'1 1.0
2018-Sep-13 01:31N 32°35' W 117°20'0 0.3
2018-Sep-13 01:04N 32°35' W 117°20'0 1.6
2018-Sep-13 01:01N 32°35' W 117°20'0 0.6
2018-Sep-13 00:30N 32°35' W 117°19'0 0.6
2018-Sep-13 00:04N 32°34' W 117°19'0 0.1
2018-Sep-13 00:00N 32°34' W 117°19'0 0.5
2018-Sep-12 23:31N 32°34' W 117°19'0 0.8
2018-Sep-12 23:03N 32°34' W 117°19'0 7.1
2018-Sep-12 23:01N 32°34' W 117°20'4 7.4
2018-Sep-12 22:31N 32°37' W 117°23'1 1.5
2018-Sep-12 22:03N 32°38' W 117°23'0 0.0
2018-Sep-12 22:01N 32°38' W 117°23'0 0.5
2018-Sep-12 21:31N 32°38' W 117°23'0 0.6
2018-Sep-12 21:04N 32°37' W 117°23'0 0.0
2018-Sep-12 21:00N 32°37' W 117°23'0 0.7
2018-Sep-12 20:31N 32°37' W 117°22'0 0.4
2018-Sep-12 20:04N 32°37' W 117°22'0 2.0
2018-Sep-12 20:00N 32°37' W 117°22'0 0.3
2018-Sep-12 19:31N 32°37' W 117°22'0 0.2
2018-Sep-12 19:03N 32°37' W 117°22'0 0.2
2018-Sep-12 19:00N 32°37' W 117°22'0 0.6
2018-Sep-12 18:30N 32°37' W 117°22'0 0.6
2018-Sep-12 18:04N 32°37' W 117°21'0 1.0
2018-Sep-12 18:01N 32°37' W 117°21'0 0.6
2018-Sep-12 17:31N 32°37' W 117°21'0 0.1
2018-Sep-12 17:04N 32°37' W 117°21'0 0.2
2018-Sep-12 17:00N 32°37' W 117°21'1 1.3
2018-Sep-12 16:31N 32°37' W 117°20'0 0.1
2018-Sep-12 16:03N 32°37' W 117°20'0 0.9
2018-Sep-12 16:00N 32°37' W 117°20'0 0.1
2018-Sep-12 15:31N 32°37' W 117°20'0 0.6
2018-Sep-12 15:03N 32°37' W 117°20'0 1.0
2018-Sep-12 15:00N 32°37' W 117°20'0 0.6
2018-Sep-12 14:30N 32°37' W 117°20'0 0.5
2018-Sep-12 14:01N 32°36' W 117°19'0 0.7
2018-Sep-12 13:30N 32°36' W 117°19'0 0.3
2018-Sep-12 13:03N 32°36' W 117°19'0 1.0
2018-Sep-12 13:00N 32°36' W 117°19'0 0.5
2018-Sep-12 12:31N 32°36' W 117°19'0 0.6
2018-Sep-12 12:04N 32°36' W 117°18'0 2.0
2018-Sep-12 12:00N 32°36' W 117°18'0 0.5
2018-Sep-12 11:30N 32°36' W 117°18'0 0.7
2018-Sep-12 11:03N 32°36' W 117°17'0 1.1
2018-Sep-12 11:01N 32°36' W 117°17'0 0.6
2018-Sep-12 10:30N 32°36' W 117°17'0 0.6
2018-Sep-12 10:03N 32°36' W 117°17'0 0.2
2018-Sep-12 10:00N 32°36' W 117°17'0 0.5
2018-Sep-12 09:31N 32°36' W 117°16'0 0.6
2018-Sep-12 09:03N 32°35' W 117°16'0 0.1
2018-Sep-12 09:01N 32°35' W 117°16'1 2.0
2018-Sep-12 08:30N 32°35' W 117°17'0 0.2
2018-Sep-12 08:03N 32°35' W 117°17'0 1.7
2018-Sep-12 08:01N 32°35' W 117°17'0 0.6
2018-Sep-12 07:31N 32°35' W 117°18'0 0.9
2018-Sep-12 07:03N 32°35' W 117°18'0 1.6
2018-Sep-12 07:00N 32°35' W 117°18'0 0.7
2018-Sep-12 06:30N 32°35' W 117°18'0 0.1
2018-Sep-12 06:03N 32°35' W 117°18'0 0.1
2018-Sep-12 06:00N 32°35' W 117°18'2 3.7
2018-Sep-12 05:31N 32°35' W 117°20'2 5.1
2018-Sep-12 05:04N 32°36' W 117°23'0 0.2
2018-Sep-12 05:00N 32°36' W 117°23'0 0.3
2018-Sep-12 04:31N 32°36' W 117°22'0 0.9
2018-Sep-12 04:04N 32°36' W 117°22'0 0.0
2018-Sep-12 04:01N 32°36' W 117°22'0 0.6
2018-Sep-12 03:30N 32°36' W 117°22'0 0.6
2018-Sep-12 03:04N 32°37' W 117°21'0 0.1
2018-Sep-12 03:00N 32°37' W 117°21'0 0.5
2018-Sep-12 02:30N 32°37' W 117°21'0 0.6
2018-Sep-12 02:04N 32°37' W 117°21'0 0.0
2018-Sep-12 02:00N 32°37' W 117°21'0 1.0
2018-Sep-12 01:30N 32°37' W 117°20'0 0.7
2018-Sep-12 01:03N 32°37' W 117°21'0 0.4
2018-Sep-12 01:00N 32°37' W 117°21'0 0.1
2018-Sep-12 00:30N 32°37' W 117°21'0 0.8
2018-Sep-12 00:03N 32°37' W 117°20'0 0.3
2018-Sep-12 00:00N 32°37' W 117°20'0 0.9
2018-Sep-11 23:30N 32°37' W 117°20'0 0.4
2018-Sep-11 23:04N 32°37' W 117°20'0 1.0
2018-Sep-11 23:01N 32°37' W 117°20'0 0.8
2018-Sep-11 22:31N 32°37' W 117°20'0 0.7
2018-Sep-11 22:03N 32°37' W 117°19'0 2.3
2018-Sep-11 22:01N 32°37' W 117°19'0 0.5
2018-Sep-11 21:31N 32°38' W 117°19'0 0.6
2018-Sep-11 21:04N 32°38' W 117°18'0 1.9
2018-Sep-11 21:01N 32°38' W 117°18'0 0.8
2018-Sep-11 20:31N 32°38' W 117°18'0 0.1
2018-Sep-11 20:04N 32°38' W 117°18'0 0.1
2018-Sep-11 20:00N 32°38' W 117°18'0 0.6
2018-Sep-11 19:30N 32°38' W 117°18'0 0.0
2018-Sep-11 19:04N 32°38' W 117°18'0 0.2
2018-Sep-11 19:01N 32°38' W 117°18'0 0.3
2018-Sep-11 18:30N 32°38' W 117°17'0 0.4
2018-Sep-11 18:03N 32°38' W 117°18'0 0.0
2018-Sep-11 18:00N 32°38' W 117°18'0 0.0
2018-Sep-11 17:30N 32°38' W 117°18'0 0.0
2018-Sep-11 17:03N 32°38' W 117°18'0 0.1
2018-Sep-11 17:00N 32°38' W 117°18'0 0.2
2018-Sep-11 16:31N 32°38' W 117°18'0 0.3
2018-Sep-11 16:03N 32°38' W 117°18'0 0.9
2018-Sep-11 16:00N 32°38' W 117°18'2 4.2
2018-Sep-11 15:30N 32°38' W 117°15'3 6.7
2018-Sep-11 15:03N 32°41' W 117°14'0 7.1
2018-Sep-11 15:01N 32°41' W 117°14'3 5.9
2018-Sep-11 14:31N 32°43' W 117°11'  
Track history (hours):
 
Tides and Currents Weather Stations Pressure Air Temp Water Temp Dewpoint Dewpoint Depression Visibility Wind Speed Wind Dir Waves Ship Positions

Oceanographic research ship New Horizon (USA)

Detailed information on ship capabilities available from University of Delaware's Ocean Information Center.

Owner: Bold Horizon, LLC., Annapolis, MD. More information available from US FCC via Universal Licensing System and Coast Guard Vessel Documentation Center.

Last reported at 2018-Sep-21 02:30 UTC. Time now 2018-Sep-21 02:37 UTC.
Position N 32°58' W 118°09'.

Type: Other ship. MMSI: 303273000.

Date/timePositionNaut miles runAvg speedWind from/ knotsBaromVisibWave heightAir tempDewpointWater temp
2018-Sep-21 02:30N 32°58' W 118°09'3 7.6
2018-Sep-21 02:04N 32°57' W 118°05'0 7.2
2018-Sep-21 02:00N 32°56' W 118°05'3 6.6
2018-Sep-21 01:31N 32°55' W 118°01'3 6.7
2018-Sep-21 01:04N 32°54' W 117°58'0 4.4
2018-Sep-21 01:01N 32°54' W 117°57'4 7.4
2018-Sep-21 00:31N 32°53' W 117°53'4 7.8
2018-Sep-21 00:04N 32°52' W 117°49'0 7.4
2018-Sep-21 00:00N 32°52' W 117°49'4 7.9
2018-Sep-20 23:31N 32°50' W 117°45'3 7.8
2018-Sep-20 23:03N 32°48' W 117°41'0 7.7
2018-Sep-20 23:01N 32°48' W 117°41'4 7.4
2018-Sep-20 22:31N 32°46' W 117°37'3 7.2
2018-Sep-20 22:04N 32°44' W 117°34'0 6.7
2018-Sep-20 22:00N 32°44' W 117°34'3 6.9
2018-Sep-20 21:31N 32°43' W 117°30'3 7.6
2018-Sep-20 21:03N 32°41' W 117°26'0 7.3
2018-Sep-20 21:00N 32°41' W 117°26'4 8.0
2018-Sep-20 20:30N 32°39' W 117°21'4 8.1
2018-Sep-20 20:03N 32°38' W 117°17'0 8.4
2018-Sep-20 20:00N 32°38' W 117°17'3 6.3
2018-Sep-20 19:31N 32°39' W 117°14'2 5.1
2018-Sep-20 19:02N 32°42' W 117°14'0 0.0
2018-Sep-20 18:58N 32°42' W 117°14'0 0.0
2018-Sep-20 18:27N 32°42' W 117°14'0 0.0
2018-Sep-20 18:04N 32°42' W 117°14'0 0.0
2018-Sep-20 17:59N 32°42' W 117°14'0 0.0
2018-Sep-20 17:31N 32°42' W 117°14'0 0.0
2018-Sep-20 17:02N 32°42' W 117°14'0 0.2
2018-Sep-20 17:00N 32°42' W 117°14'0 0.0
2018-Sep-20 16:30N 32°42' W 117°14'0 0.0
2018-Sep-20 16:04N 32°42' W 117°14'0 0.0
2018-Sep-20 16:01N 32°42' W 117°14'0 0.9
2018-Sep-20 15:30N 32°42' W 117°14'3 6.8
2018-Sep-20 15:00N 32°42' W 117°10'0 0.0
2018-Sep-18 19:39N 32°42' W 117°09'0 0.0
2018-Sep-18 19:21N 32°42' W 117°09'0 0.0
2018-Sep-18 18:57N 32°42' W 117°09'0 0.0
2018-Sep-18 18:12N 32°42' W 117°09'0 0.0
2018-Sep-18 17:54N 32°42' W 117°09'0 0.0
2018-Sep-18 17:27N 32°42' W 117°09'0 0.0
2018-Sep-18 17:00N 32°42' W 117°09'0 0.0
2018-Sep-18 16:30N 32°42' W 117°09'0 0.0
2018-Sep-18 15:33N 32°42' W 117°09'0 0.0
2018-Sep-18 15:27N 32°42' W 117°09'0 0.0
2018-Sep-18 05:45N 32°42' W 117°09'0 0.0
2018-Sep-18 05:15N 32°42' W 117°09'0 0.0
2018-Sep-18 04:54N 32°42' W 117°09'0 0.0
2018-Sep-17 03:08N 32°42' W 117°09'0 0.0
2018-Sep-17 03:02N 32°42' W 117°09'0 0.0
2018-Sep-17 02:08N 32°42' W 117°09'0 0.0
2018-Sep-16 17:41N 32°42' W 117°09'1 5.1
2018-Sep-16 17:30N 32°42' W 117°10'3 6.1
2018-Sep-16 17:03N 32°42' W 117°13'0 6.9
2018-Sep-16 17:00N 32°42' W 117°14'3 6.1
2018-Sep-16 16:30N 32°39' W 117°14'2 3.4
2018-Sep-16 16:03N 32°38' W 117°14'0 3.4
2018-Sep-16 16:00N 32°38' W 117°14'2 3.0
2018-Sep-16 15:30N 32°36' W 117°15'1 3.2
2018-Sep-16 15:03N 32°36' W 117°16'0 3.1
2018-Sep-16 15:00N 32°36' W 117°17'1 3.0
2018-Sep-16 14:30N 32°35' W 117°18'2 2.5
2018-Sep-16 13:30N 32°35' W 117°21'1 1.2
2018-Sep-16 13:03N 32°35' W 117°21'0 3.3
2018-Sep-16 13:00N 32°35' W 117°21'2 4.2
2018-Sep-16 12:30N 32°37' W 117°21'1 1.4
2018-Sep-16 12:03N 32°38' W 117°21'0 0.8
2018-Sep-16 12:00N 32°38' W 117°21'0 0.2
2018-Sep-16 11:30N 32°38' W 117°21'0 0.6
2018-Sep-16 11:03N 32°38' W 117°21'0 1.0
2018-Sep-16 11:00N 32°38' W 117°21'1 2.0
2018-Sep-16 10:30N 32°37' W 117°22'0 0.6
2018-Sep-16 10:04N 32°37' W 117°22'0 0.2
2018-Sep-16 10:00N 32°37' W 117°22'0 0.3
2018-Sep-16 09:30N 32°37' W 117°22'0 0.5
2018-Sep-16 09:03N 32°37' W 117°22'0 3.1
2018-Sep-16 09:00N 32°37' W 117°22'1 1.1
2018-Sep-16 08:30N 32°36' W 117°22'0 0.3
2018-Sep-16 08:03N 32°36' W 117°22'0 1.6
2018-Sep-16 08:00N 32°36' W 117°22'0 0.4
2018-Sep-16 07:30N 32°36' W 117°22'1 2.0
2018-Sep-16 07:03N 32°36' W 117°21'0 1.2
2018-Sep-16 07:00N 32°36' W 117°21'0 0.3
2018-Sep-16 06:30N 32°36' W 117°21'0 0.1
2018-Sep-16 06:03N 32°36' W 117°21'0 0.2
2018-Sep-16 06:00N 32°36' W 117°21'1 1.7
2018-Sep-16 05:30N 32°36' W 117°20'0 0.1
2018-Sep-16 05:03N 32°36' W 117°20'0 1.0
2018-Sep-16 05:00N 32°36' W 117°20'0 0.7
2018-Sep-16 04:31N 32°35' W 117°20'0 0.7
2018-Sep-16 04:03N 32°36' W 117°20'0 0.0
2018-Sep-16 04:00N 32°36' W 117°20'0 0.7
2018-Sep-16 03:30N 32°36' W 117°20'2 3.9
2018-Sep-16 03:03N 32°37' W 117°22'0 1.5
2018-Sep-16 03:01N 32°37' W 117°22'0 0.5
2018-Sep-16 02:30N 32°37' W 117°22'0 0.5
2018-Sep-16 02:03N 32°37' W 117°22'0 2.8
2018-Sep-16 02:00N 32°37' W 117°22'1 2.1
2018-Sep-16 01:30N 32°38' W 117°23'0 0.2
2018-Sep-16 01:04N 32°38' W 117°23'0 0.6
2018-Sep-16 01:01N 32°38' W 117°23'1 2.6
2018-Sep-16 00:30N 32°37' W 117°22'0 0.1
2018-Sep-16 00:03N 32°37' W 117°22'0 0.0
2018-Sep-16 00:00N 32°37' W 117°22'0 0.0
2018-Sep-15 23:30N 32°37' W 117°22'1 1.2
2018-Sep-15 23:03N 32°37' W 117°21'0 0.1
2018-Sep-15 23:00N 32°37' W 117°21'1 1.8
2018-Sep-15 22:30N 32°37' W 117°20'0 1.0
2018-Sep-15 22:04N 32°37' W 117°20'0 1.0
2018-Sep-15 22:00N 32°37' W 117°20'0 0.1
2018-Sep-15 21:31N 32°37' W 117°20'1 1.9
2018-Sep-15 21:03N 32°36' W 117°19'0 0.1
2018-Sep-15 21:01N 32°36' W 117°19'2 3.0
2018-Sep-15 20:30N 32°36' W 117°17'0 0.2
2018-Sep-15 20:04N 32°36' W 117°17'0 0.1
2018-Sep-15 20:01N 32°36' W 117°17'1 1.7
2018-Sep-15 19:30N 32°35' W 117°18'0 0.0
2018-Sep-15 19:03N 32°35' W 117°18'0 0.1
2018-Sep-15 19:00N 32°35' W 117°18'0 0.6
2018-Sep-15 18:30N 32°35' W 117°18'0 0.0
2018-Sep-15 18:04N 32°35' W 117°18'0 1.0
2018-Sep-15 18:00N 32°35' W 117°18'0 0.3
2018-Sep-15 17:30N 32°35' W 117°18'0 0.2
2018-Sep-15 17:03N 32°35' W 117°18'0 0.7
2018-Sep-15 17:00N 32°35' W 117°18'1 2.0
2018-Sep-15 16:30N 32°35' W 117°19'1 1.5
2018-Sep-15 16:03N 32°35' W 117°19'0 6.1
2018-Sep-15 16:00N 32°35' W 117°20'0 0.2
2018-Sep-15 15:30N 32°35' W 117°19'1 2.7
2018-Sep-15 15:00N 32°36' W 117°20'1 1.1
2018-Sep-15 14:03N 32°37' W 117°21'0 0.0
2018-Sep-15 14:00N 32°37' W 117°21'0 0.4
2018-Sep-15 13:30N 32°37' W 117°21'0 0.2
2018-Sep-15 13:04N 32°37' W 117°21'0 1.0
2018-Sep-15 13:00N 32°37' W 117°21'0 0.0
2018-Sep-15 12:31N 32°37' W 117°21'1 2.4
2018-Sep-15 12:03N 32°38' W 117°21'0 0.1
2018-Sep-15 12:00N 32°38' W 117°21'1 2.6
2018-Sep-15 11:30N 32°39' W 117°22'0 0.1
2018-Sep-15 11:03N 32°39' W 117°22'0 1.0
2018-Sep-15 11:00N 32°39' W 117°22'2 3.6
2018-Sep-15 10:30N 32°39' W 117°20'0 0.9
2018-Sep-15 10:03N 32°39' W 117°20'0 3.6
2018-Sep-15 10:00N 32°39' W 117°20'0 1.0
2018-Sep-15 09:30N 32°40' W 117°20'0 0.0
2018-Sep-15 09:03N 32°40' W 117°20'0 0.0
2018-Sep-15 09:00N 32°40' W 117°20'0 0.0
2018-Sep-15 08:30N 32°40' W 117°20'1 1.2
2018-Sep-15 08:03N 32°39' W 117°20'0 0.1
2018-Sep-15 08:00N 32°39' W 117°20'1 1.4
2018-Sep-15 07:30N 32°39' W 117°20'0 0.9
2018-Sep-15 07:04N 32°38' W 117°20'0 0.1
2018-Sep-15 07:01N 32°38' W 117°20'1 1.6
2018-Sep-15 06:30N 32°37' W 117°20'1 1.4
2018-Sep-15 06:03N 32°37' W 117°21'0 3.6
2018-Sep-15 06:00N 32°37' W 117°21'0 0.5
2018-Sep-15 05:30N 32°36' W 117°21'1 1.3
2018-Sep-15 05:03N 32°36' W 117°21'0 1.0
2018-Sep-15 05:00N 32°36' W 117°21'0 0.1
2018-Sep-15 04:30N 32°36' W 117°21'1 1.8
2018-Sep-15 04:04N 32°37' W 117°21'0 7.1
2018-Sep-15 04:00N 32°36' W 117°21'1 3.0
2018-Sep-15 03:30N 32°35' W 117°21'0 0.0
2018-Sep-15 03:03N 32°35' W 117°21'0 0.0
2018-Sep-15 03:00N 32°35' W 117°21'0 0.0
2018-Sep-15 02:30N 32°35' W 117°21'1 1.2
2018-Sep-15 02:03N 32°34' W 117°22'0 1.2
2018-Sep-15 02:00N 32°34' W 117°22'0 0.1
2018-Sep-15 01:30N 32°35' W 117°22'0 0.0
2018-Sep-15 01:03N 32°35' W 117°22'0 0.1
2018-Sep-15 01:00N 32°35' W 117°22'2 3.6
2018-Sep-15 00:30N 32°36' W 117°22'0 0.0
2018-Sep-15 00:03N 32°36' W 117°22'0 0.3
2018-Sep-15 00:00N 32°36' W 117°22'0 0.0
2018-Sep-14 23:30N 32°36' W 117°22'0 0.1
2018-Sep-14 23:04N 32°36' W 117°22'0 1.0
2018-Sep-14 23:00N 32°36' W 117°22'1 1.6
2018-Sep-14 22:30N 32°37' W 117°21'0 0.0
2018-Sep-14 22:03N 32°37' W 117°21'0 0.0
2018-Sep-14 22:00N 32°37' W 117°21'0 0.0
2018-Sep-14 21:31N 32°37' W 117°21'0 0.9
2018-Sep-14 21:03N 32°37' W 117°21'0 0.0
2018-Sep-14 21:01N 32°37' W 117°21'0 0.1
2018-Sep-14 20:30N 32°37' W 117°21'1 2.0
2018-Sep-14 20:03N 32°37' W 117°20'0 0.1
2018-Sep-14 20:00N 32°37' W 117°20'0 0.9
2018-Sep-14 19:30N 32°37' W 117°19'0 0.9
2018-Sep-14 19:03N 32°38' W 117°19'0 1.0
2018-Sep-14 19:00N 32°38' W 117°19'0 0.4
2018-Sep-14 18:30N 32°38' W 117°19'1 2.0
2018-Sep-14 18:03N 32°38' W 117°18'0 0.1
2018-Sep-14 18:00N 32°38' W 117°18'0 0.0
2018-Sep-14 17:30N 32°38' W 117°18'2 5.4
2018-Sep-14 17:03N 32°38' W 117°15'0 8.6
2018-Sep-14 17:00N 32°38' W 117°14'4 8.1
2018-Sep-14 16:30N 32°42' W 117°14'3 6.6
2018-Sep-14 16:03N 32°42' W 117°10'1 8.6
2018-Sep-14 15:59N 32°42' W 117°10'1 0.0
2018-Sep-14 01:31N 32°42' W 117°09'3 7.4
2018-Sep-14 01:03N 32°43' W 117°13'0 8.0
2018-Sep-14 01:00N 32°42' W 117°14'4 7.9
2018-Sep-14 00:31N 32°38' W 117°14'3 7.7
2018-Sep-14 00:04N 32°36' W 117°17'0 7.4
2018-Sep-14 00:01N 32°36' W 117°17'1 2.9
2018-Sep-13 23:31N 32°36' W 117°19'0 1.1
2018-Sep-13 23:04N 32°35' W 117°19'0 0.0
2018-Sep-13 23:00N 32°35' W 117°19'1 1.1
2018-Sep-13 22:30N 32°35' W 117°19'1 2.1
2018-Sep-13 22:03N 32°35' W 117°20'0 7.1
2018-Sep-13 22:00N 32°35' W 117°20'1 1.5
2018-Sep-13 21:31N 32°35' W 117°21'1 1.2
2018-Sep-13 21:03N 32°35' W 117°22'0 2.4
2018-Sep-13 21:00N 32°35' W 117°22'0 0.3
2018-Sep-13 20:30N 32°35' W 117°22'1 1.7
2018-Sep-13 20:03N 32°34' W 117°21'0 0.6
2018-Sep-13 20:00N 32°34' W 117°21'0 0.4
2018-Sep-13 19:31N 32°35' W 117°22'0 0.7
2018-Sep-13 19:04N 32°35' W 117°21'0 0.2
2018-Sep-13 19:01N 32°35' W 117°21'0 0.5
2018-Sep-13 18:30N 32°35' W 117°21'0 0.6
2018-Sep-13 18:03N 32°35' W 117°21'0 0.0
2018-Sep-13 18:00N 32°35' W 117°21'0 0.6
2018-Sep-13 17:30N 32°36' W 117°21'0 0.6
2018-Sep-13 17:04N 32°36' W 117°21'0 0.2
2018-Sep-13 17:00N 32°36' W 117°21'0 0.7
2018-Sep-13 16:30N 32°36' W 117°21'0 0.4
2018-Sep-13 16:04N 32°36' W 117°21'0 1.3
2018-Sep-13 16:01N 32°36' W 117°21'0 0.8
2018-Sep-13 15:30N 32°37' W 117°21'0 0.9
2018-Sep-13 15:03N 32°37' W 117°21'0 0.0
2018-Sep-13 15:00N 32°37' W 117°21'0 0.3
2018-Sep-13 14:31N 32°37' W 117°21'0 0.3
2018-Sep-13 14:01N 32°37' W 117°21'0 0.6
2018-Sep-13 13:31N 32°37' W 117°20'0 0.4
2018-Sep-13 13:03N 32°38' W 117°20'0 1.4
2018-Sep-13 13:00N 32°38' W 117°20'0 0.5
2018-Sep-13 12:30N 32°38' W 117°20'0 0.6
2018-Sep-13 12:03N 32°38' W 117°20'0 0.1
2018-Sep-13 12:00N 32°38' W 117°20'0 0.6
2018-Sep-13 11:31N 32°38' W 117°20'0 0.9
2018-Sep-13 11:04N 32°39' W 117°20'0 2.0
2018-Sep-13 11:01N 32°39' W 117°20'0 0.7
2018-Sep-13 10:30N 32°39' W 117°20'0 0.6
2018-Sep-13 10:04N 32°39' W 117°20'0 1.6
2018-Sep-13 10:00N 32°39' W 117°20'0 0.3
2018-Sep-13 09:30N 32°40' W 117°20'1 2.0
2018-Sep-13 09:04N 32°39' W 117°21'0 6.2
2018-Sep-13 09:01N 32°39' W 117°21'1 1.8
2018-Sep-13 08:30N 32°39' W 117°22'0 0.6
2018-Sep-13 08:03N 32°39' W 117°22'0 0.1
2018-Sep-13 08:00N 32°39' W 117°22'0 0.7
2018-Sep-13 07:30N 32°39' W 117°22'0 1.0
2018-Sep-13 07:04N 32°38' W 117°21'0 0.0
2018-Sep-13 07:00N 32°38' W 117°21'0 0.5
2018-Sep-13 06:30N 32°38' W 117°21'0 0.7
2018-Sep-13 06:04N 32°38' W 117°21'0 1.9
2018-Sep-13 06:01N 32°38' W 117°21'0 0.8
2018-Sep-13 05:30N 32°37' W 117°21'0 0.6
2018-Sep-13 05:03N 32°37' W 117°21'0 0.0
2018-Sep-13 05:01N 32°37' W 117°21'0 0.6
2018-Sep-13 04:30N 32°37' W 117°21'0 0.5
2018-Sep-13 04:04N 32°36' W 117°20'0 0.5
2018-Sep-13 04:01N 32°36' W 117°20'0 0.5
2018-Sep-13 03:31N 32°36' W 117°20'0 0.6
2018-Sep-13 03:04N 32°36' W 117°20'0 0.0
2018-Sep-13 03:01N 32°36' W 117°20'0 0.8
2018-Sep-13 02:30N 32°36' W 117°20'0 0.4
2018-Sep-13 02:03N 32°35' W 117°20'0 1.3
2018-Sep-13 02:01N 32°35' W 117°20'1 1.0
2018-Sep-13 01:31N 32°35' W 117°20'0 0.3
2018-Sep-13 01:04N 32°35' W 117°20'0 1.6
2018-Sep-13 01:01N 32°35' W 117°20'0 0.6
2018-Sep-13 00:30N 32°35' W 117°19'0 0.6
2018-Sep-13 00:04N 32°34' W 117°19'0 0.1
2018-Sep-13 00:00N 32°34' W 117°19'0 0.5
2018-Sep-12 23:31N 32°34' W 117°19'0 0.8
2018-Sep-12 23:03N 32°34' W 117°19'0 7.1
2018-Sep-12 23:01N 32°34' W 117°20'4 7.4
2018-Sep-12 22:31N 32°37' W 117°23'1 1.5
2018-Sep-12 22:03N 32°38' W 117°23'0 0.0
2018-Sep-12 22:01N 32°38' W 117°23'0 0.5
2018-Sep-12 21:31N 32°38' W 117°23'0 0.6
2018-Sep-12 21:04N 32°37' W 117°23'0 0.0
2018-Sep-12 21:00N 32°37' W 117°23'0 0.7
2018-Sep-12 20:31N 32°37' W 117°22'0 0.4
2018-Sep-12 20:04N 32°37' W 117°22'0 2.0
2018-Sep-12 20:00N 32°37' W 117°22'0 0.3
2018-Sep-12 19:31N 32°37' W 117°22'0 0.2
2018-Sep-12 19:03N 32°37' W 117°22'0 0.2
2018-Sep-12 19:00N 32°37' W 117°22'0 0.6
2018-Sep-12 18:30N 32°37' W 117°22'0 0.6
2018-Sep-12 18:04N 32°37' W 117°21'0 1.0
2018-Sep-12 18:01N 32°37' W 117°21'0 0.6
2018-Sep-12 17:31N 32°37' W 117°21'0 0.1
2018-Sep-12 17:04N 32°37' W 117°21'0 0.2
2018-Sep-12 17:00N 32°37' W 117°21'1 1.3
2018-Sep-12 16:31N 32°37' W 117°20'0 0.1
2018-Sep-12 16:03N 32°37' W 117°20'0 0.9
2018-Sep-12 16:00N 32°37' W 117°20'0 0.1
2018-Sep-12 15:31N 32°37' W 117°20'0 0.6
2018-Sep-12 15:03N 32°37' W 117°20'0 1.0
2018-Sep-12 15:00N 32°37' W 117°20'0 0.6
2018-Sep-12 14:30N 32°37' W 117°20'0 0.5
2018-Sep-12 14:01N 32°36' W 117°19'0 0.7
2018-Sep-12 13:30N 32°36' W 117°19'0 0.3
2018-Sep-12 13:03N 32°36' W 117°19'0 1.0
2018-Sep-12 13:00N 32°36' W 117°19'0 0.5
2018-Sep-12 12:31N 32°36' W 117°19'0 0.6
2018-Sep-12 12:04N 32°36' W 117°18'0 2.0
2018-Sep-12 12:00N 32°36' W 117°18'0 0.5
2018-Sep-12 11:30N 32°36' W 117°18'0 0.7
2018-Sep-12 11:03N 32°36' W 117°17'0 1.1
2018-Sep-12 11:01N 32°36' W 117°17'0 0.6
2018-Sep-12 10:30N 32°36' W 117°17'0 0.6
2018-Sep-12 10:03N 32°36' W 117°17'0 0.2
2018-Sep-12 10:00N 32°36' W 117°17'0 0.5
2018-Sep-12 09:31N 32°36' W 117°16'0 0.6
2018-Sep-12 09:03N 32°35' W 117°16'0 0.1
2018-Sep-12 09:01N 32°35' W 117°16'1 2.0
2018-Sep-12 08:30N 32°35' W 117°17'0 0.2
2018-Sep-12 08:03N 32°35' W 117°17'0 1.7
2018-Sep-12 08:01N 32°35' W 117°17'0 0.6
2018-Sep-12 07:31N 32°35' W 117°18'0 0.9
2018-Sep-12 07:03N 32°35' W 117°18'0 1.6
2018-Sep-12 07:00N 32°35' W 117°18'0 0.7
2018-Sep-12 06:30N 32°35' W 117°18'0 0.1
2018-Sep-12 06:03N 32°35' W 117°18'0 0.1
2018-Sep-12 06:00N 32°35' W 117°18'2 3.7
2018-Sep-12 05:31N 32°35' W 117°20'2 5.1
2018-Sep-12 05:04N 32°36' W 117°23'0 0.2
2018-Sep-12 05:00N 32°36' W 117°23'0 0.3
2018-Sep-12 04:31N 32°36' W 117°22'0 0.9
2018-Sep-12 04:04N 32°36' W 117°22'0 0.0
2018-Sep-12 04:01N 32°36' W 117°22'0 0.6
2018-Sep-12 03:30N 32°36' W 117°22'0 0.6
2018-Sep-12 03:04N 32°37' W 117°21'0 0.1
2018-Sep-12 03:00N 32°37' W 117°21'0 0.5
2018-Sep-12 02:30N 32°37' W 117°21'0 0.6
2018-Sep-12 02:04N 32°37' W 117°21'0 0.0
2018-Sep-12 02:00N 32°37' W 117°21'0 1.0
2018-Sep-12 01:30N 32°37' W 117°20'0 0.7
2018-Sep-12 01:03N 32°37' W 117°21'0 0.4
2018-Sep-12 01:00N 32°37' W 117°21'0 0.1
2018-Sep-12 00:30N 32°37' W 117°21'0 0.8
2018-Sep-12 00:03N 32°37' W 117°20'0 0.3
2018-Sep-12 00:00N 32°37' W 117°20'0 0.9
2018-Sep-11 23:30N 32°37' W 117°20'0 0.4
2018-Sep-11 23:04N 32°37' W 117°20'0 1.0
2018-Sep-11 23:01N 32°37' W 117°20'0 0.8
2018-Sep-11 22:31N 32°37' W 117°20'0 0.7
2018-Sep-11 22:03N 32°37' W 117°19'0 2.3
2018-Sep-11 22:01N 32°37' W 117°19'0 0.5
2018-Sep-11 21:31N 32°38' W 117°19'0 0.6
2018-Sep-11 21:04N 32°38' W 117°18'0 1.9
2018-Sep-11 21:01N 32°38' W 117°18'0 0.8
2018-Sep-11 20:31N 32°38' W 117°18'0 0.1
2018-Sep-11 20:04N 32°38' W 117°18'0 0.1
2018-Sep-11 20:00N 32°38' W 117°18'0 0.6
2018-Sep-11 19:30N 32°38' W 117°18'0 0.0
2018-Sep-11 19:04N 32°38' W 117°18'0 0.2
2018-Sep-11 19:01N 32°38' W 117°18'0 0.3
2018-Sep-11 18:30N 32°38' W 117°17'0 0.4
2018-Sep-11 18:03N 32°38' W 117°18'0 0.0
2018-Sep-11 18:00N 32°38' W 117°18'0 0.0
2018-Sep-11 17:30N 32°38' W 117°18'0 0.0
2018-Sep-11 17:03N 32°38' W 117°18'0 0.1
2018-Sep-11 17:00N 32°38' W 117°18'0 0.2
2018-Sep-11 16:31N 32°38' W 117°18'0 0.3
2018-Sep-11 16:03N 32°38' W 117°18'0 0.9
2018-Sep-11 16:00N 32°38' W 117°18'2 4.2
2018-Sep-11 15:30N 32°38' W 117°15'3 6.7
2018-Sep-11 15:03N 32°41' W 117°14'0 7.1
2018-Sep-11 15:01N 32°41' W 117°14'3 5.9
2018-Sep-11 14:31N 32°43' W 117°11'  

Dump ship's entire track history